createdAt,value
2023-03-03T00:00:54.359Z,83
2023-03-03T00:02:01.321Z,85
2023-03-03T00:03:09.610Z,82
2023-03-03T00:04:16.674Z,85
2023-03-03T00:05:23.655Z,84
2023-03-03T00:06:34.370Z,82
2023-03-03T00:07:41.726Z,81
2023-03-03T00:08:48.931Z,83
2023-03-03T00:09:59.350Z,84
2023-03-03T00:11:08.030Z,78
2023-03-03T00:12:16.686Z,85
2023-03-03T00:13:29.172Z,82
2023-03-03T00:14:37.523Z,82
2023-03-03T00:15:44.725Z,78
2023-03-03T00:16:51.820Z,83
2023-03-03T00:17:59.741Z,80
2023-03-03T00:19:06.805Z,81
2023-03-03T00:20:16.808Z,77
2023-03-03T00:21:31.882Z,78
2023-03-03T00:22:44.924Z,82
2023-03-03T00:23:53.308Z,78
2023-03-03T00:25:00.972Z,79
2023-03-03T00:26:19.025Z,80
2023-03-03T00:27:26.628Z,79
2023-03-03T00:28:33.673Z,76
2023-03-03T00:29:43.416Z,78
2023-03-03T00:30:53.492Z,78
2023-03-03T00:32:03.467Z,77
2023-03-03T00:33:18.483Z,76
2023-03-03T00:34:28.466Z,80
2023-03-03T00:35:38.148Z,81
2023-03-03T00:36:46.495Z,79
2023-03-03T00:37:53.963Z,81
2023-03-03T00:39:01.122Z,83
2023-03-03T00:40:16.143Z,86
2023-03-03T00:41:30.959Z,86
2023-03-03T00:42:38.347Z,91
2023-03-03T00:43:45.323Z,92
2023-03-03T00:44:54.947Z,97
2023-03-03T00:46:02.284Z,102
2023-03-03T00:47:15.155Z,102
2023-03-03T00:48:32.290Z,98
2023-03-03T00:49:41.828Z,100
2023-03-03T00:50:49.400Z,102
2023-03-03T00:51:56.366Z,103
2023-03-03T00:53:06.272Z,100
2023-03-03T00:54:19.593Z,101
2023-03-03T00:55:29.506Z,99
2023-03-03T00:56:36.565Z,100
2023-03-03T00:57:44.331Z,104
2023-03-03T00:58:54.008Z,101
2023-03-03T01:00:00.986Z,103
2023-03-03T01:01:10.163Z,105
2023-03-03T01:02:17.300Z,99
2023-03-03T01:03:24.774Z,103
2023-03-03T01:04:31.770Z,100
2023-03-03T01:05:38.843Z,107
2023-03-03T01:06:46.371Z,104
2023-03-03T01:07:53.359Z,117
2023-03-03T01:09:00.873Z,118
2023-03-03T01:10:08.169Z,116
2023-03-03T01:11:15.589Z,104
2023-03-03T01:12:26.347Z,112
2023-03-03T01:13:36.832Z,110
2023-03-03T01:14:41.780Z,113
2023-03-03T01:15:48.830Z,113
2023-03-03T01:16:55.799Z,115
2023-03-03T01:18:05.574Z,112
2023-03-03T01:19:12.566Z,107
2023-03-03T01:20:19.620Z,115
2023-03-03T01:21:27.590Z,116
2023-03-03T01:22:38.707Z,113
2023-03-03T01:23:47.736Z,114
2023-03-03T01:24:54.816Z,117
2023-03-03T01:26:01.774Z,119
2023-03-03T01:27:08.702Z,115
2023-03-03T01:28:19.311Z,118
2023-03-03T01:29:26.255Z,121
2023-03-03T01:30:40.161Z,119
2023-03-03T01:31:50.399Z,113
2023-03-03T01:33:00.918Z,119
2023-03-03T01:34:08.758Z,117
2023-03-03T01:35:15.730Z,121
2023-03-03T01:36:25.700Z,114
2023-03-03T01:37:33.566Z,122
2023-03-03T01:38:43.654Z,130
2023-03-03T01:39:50.991Z,127
2023-03-03T01:41:00.869Z,129
2023-03-03T01:42:08.782Z,130
2023-03-03T01:43:15.801Z,127
2023-03-03T01:44:23.121Z,120
2023-03-03T01:45:30.217Z,121
2023-03-03T01:46:45.191Z,120
2023-03-03T01:47:54.969Z,117
2023-03-03T01:49:04.946Z,117
2023-03-03T01:50:17.705Z,116
2023-03-03T01:51:29.694Z,118
2023-03-03T01:52:36.659Z,117
2023-03-03T01:53:51.423Z,115
2023-03-03T01:55:04.199Z,116
2023-03-03T01:56:17.071Z,116
2023-03-03T01:57:24.264Z,109
2023-03-03T01:58:31.339Z,116
2023-03-03T01:59:38.573Z,109
2023-03-03T02:00:45.530Z,111
2023-03-03T02:01:55.408Z,106
2023-03-03T02:03:02.392Z,109
2023-03-03T02:04:09.348Z,104
2023-03-03T02:05:16.573Z,106
2023-03-03T02:06:26.638Z,107
2023-03-03T02:07:34.766Z,108
2023-03-03T02:08:44.365Z,108
2023-03-03T02:10:02.263Z,104
2023-03-03T02:11:09.603Z,102
2023-03-03T02:12:17.463Z,109
2023-03-03T02:13:24.696Z,101
2023-03-03T02:14:31.728Z,101
2023-03-03T02:15:38.729Z,103
2023-03-03T02:16:45.754Z,102
2023-03-03T02:17:52.820Z,98
2023-03-03T02:18:59.862Z,98
2023-03-03T02:20:06.931Z,100
2023-03-03T02:21:19.098Z,101
2023-03-03T02:22:26.105Z,108
2023-03-03T02:23:33.087Z,100
2023-03-03T02:24:48.287Z,100
2023-03-03T02:25:58.214Z,99
2023-03-03T02:27:08.633Z,100
2023-03-03T02:28:15.684Z,101
2023-03-03T02:29:22.681Z,102
2023-03-03T02:30:29.608Z,107
2023-03-03T02:31:36.576Z,108
2023-03-03T02:32:46.605Z,107
2023-03-03T02:33:54.581Z,98
2023-03-03T02:35:01.881Z,100
2023-03-03T02:36:09.073Z,98
2023-03-03T02:37:16.109Z,97
2023-03-03T02:38:23.959Z,95
2023-03-03T02:39:33.973Z,97
2023-03-03T02:40:40.966Z,95
2023-03-03T02:41:55.505Z,92
2023-03-03T02:43:05.661Z,95
2023-03-03T02:44:15.645Z,91
2023-03-03T02:45:27.932Z,86
2023-03-03T02:46:34.757Z,88
2023-03-03T02:47:44.488Z,88
2023-03-03T02:48:57.980Z,89
2023-03-03T02:50:04.929Z,92
2023-03-03T02:51:12.358Z,88
2023-03-03T02:52:19.476Z,92
2023-03-03T02:53:29.197Z,92
2023-03-03T02:54:40.208Z,88
2023-03-03T02:55:50.193Z,84
2023-03-03T02:56:58.279Z,82
2023-03-03T02:58:08.166Z,78
2023-03-03T02:59:15.695Z,77
2023-03-03T03:00:26.356Z,82
2023-03-03T03:01:36.331Z,81
2023-03-03T03:02:46.335Z,88
2023-03-03T03:03:53.367Z,85
2023-03-03T03:05:01.514Z,88
2023-03-03T03:06:10.328Z,89
2023-03-03T03:07:20.082Z,81
2023-03-03T03:08:27.071Z,83
2023-03-03T03:09:37.021Z,80
2023-03-03T03:10:44.679Z,78
2023-03-03T03:11:55.304Z,68
2023-03-03T03:13:04.616Z,73
2023-03-03T03:14:15.731Z,69
2023-03-03T03:15:23.982Z,72
2023-03-03T03:16:33.642Z,69
2023-03-03T03:17:40.643Z,73
2023-03-03T03:18:47.669Z,74
2023-03-03T03:19:55.358Z,74
2023-03-03T03:21:05.053Z,77
2023-03-03T03:22:14.992Z,77
2023-03-03T03:23:22.370Z,77
2023-03-03T03:24:29.652Z,77
2023-03-03T03:25:39.098Z,83
2023-03-03T03:26:46.008Z,80
2023-03-03T03:27:55.763Z,79
2023-03-03T03:29:03.233Z,77
2023-03-03T03:30:13.238Z,81
2023-03-03T03:31:20.777Z,83
2023-03-03T03:32:28.042Z,77
2023-03-03T03:33:35.113Z,80
2023-03-03T03:34:42.113Z,82
2023-03-03T03:35:49.170Z,82
2023-03-03T03:36:56.252Z,78
2023-03-03T03:38:03.277Z,72
2023-03-03T03:39:12.998Z,71
2023-03-03T03:40:20.230Z,71
2023-03-03T03:41:27.782Z,71
2023-03-03T03:42:34.772Z,75
2023-03-03T03:43:41.725Z,75
2023-03-03T03:44:48.757Z,73
2023-03-03T03:45:56.390Z,74
2023-03-03T03:47:03.447Z,75
2023-03-03T03:48:13.933Z,75
2023-03-03T03:49:22.061Z,69
2023-03-03T03:50:29.804Z,76
2023-03-03T03:51:37.565Z,72
2023-03-03T03:52:45.306Z,70
2023-03-03T03:53:55.098Z,75
2023-03-03T03:55:02.939Z,72
2023-03-03T03:56:10.353Z,71
2023-03-03T03:57:17.453Z,75
2023-03-03T03:58:24.510Z,72
2023-03-03T03:59:32.051Z,73
2023-03-03T04:00:39.168Z,75
2023-03-03T04:01:46.207Z,74
2023-03-03T04:02:53.490Z,71
2023-03-03T04:04:01.705Z,80
2023-03-03T04:05:11.605Z,74
2023-03-03T04:06:18.559Z,80
2023-03-03T04:07:25.556Z,74
2023-03-03T04:08:32.583Z,81
2023-03-03T04:09:40.501Z,80
2023-03-03T04:10:47.881Z,75
2023-03-03T04:11:57.489Z,73
2023-03-03T04:13:04.513Z,71
2023-03-03T04:14:11.996Z,72
2023-03-03T04:15:19.975Z,69
2023-03-03T04:16:29.571Z,70
2023-03-03T04:17:37.490Z,66
2023-03-03T04:18:46.532Z,66
2023-03-03T04:19:53.323Z,63
2023-03-03T04:21:01.118Z,66
2023-03-03T04:22:08.646Z,66
2023-03-03T04:23:19.940Z,63
2023-03-03T04:24:29.258Z,66
2023-03-03T04:25:36.391Z,66
2023-03-03T04:26:46.023Z,64
2023-03-03T04:27:52.976Z,62
2023-03-03T04:29:00.476Z,62
2023-03-03T04:30:08.642Z,61
2023-03-03T04:31:20.487Z,65
2023-03-03T04:32:27.517Z,62
2023-03-03T04:33:37.031Z,63
2023-03-03T04:34:50.900Z,64
2023-03-03T04:35:56.908Z,64
2023-03-03T04:37:03.895Z,64
2023-03-03T04:38:12.601Z,64
2023-03-03T04:39:19.716Z,67
2023-03-03T04:40:26.954Z,70
2023-03-03T04:41:37.052Z,70
2023-03-03T04:42:47.079Z,76
2023-03-03T04:43:54.045Z,77
2023-03-03T04:45:01.678Z,78
2023-03-03T04:46:09.842Z,80
2023-03-03T04:47:19.601Z,78
2023-03-03T04:48:28.370Z,81
2023-03-03T04:49:36.292Z,82
2023-03-03T04:50:43.248Z,81
2023-03-03T04:51:53.669Z,81
2023-03-03T04:53:00.862Z,81
2023-03-03T04:55:16.493Z,82
2023-03-03T04:56:24.208Z,79
2023-03-03T04:57:34.481Z,83
2023-03-03T04:58:41.980Z,83
2023-03-03T04:59:49.286Z,81
2023-03-03T05:00:56.824Z,81
2023-03-03T05:02:04.762Z,81
2023-03-03T05:03:12.237Z,75
2023-03-03T05:04:20.950Z,68
2023-03-03T05:05:30.983Z,74
2023-03-03T05:06:38.614Z,69
2023-03-03T05:07:45.561Z,68
2023-03-03T05:08:52.576Z,70
2023-03-03T05:10:02.474Z,70
2023-03-03T05:11:09.804Z,67
2023-03-03T05:12:17.184Z,68
2023-03-03T05:13:25.405Z,68
2023-03-03T05:14:33.559Z,67
2023-03-03T05:15:44.615Z,61
2023-03-03T05:16:54.523Z,63
2023-03-03T05:18:02.274Z,64
2023-03-03T05:19:10.957Z,66
2023-03-03T05:20:20.797Z,65
2023-03-03T05:21:27.776Z,64
2023-03-03T05:22:34.762Z,68
2023-03-03T05:23:41.769Z,69
2023-03-03T05:24:48.754Z,67
2023-03-03T05:25:56.742Z,64
2023-03-03T05:27:05.096Z,62
2023-03-03T05:28:12.156Z,60
2023-03-03T05:29:19.857Z,60
2023-03-03T05:30:26.812Z,59
2023-03-03T05:31:36.947Z,58
2023-03-03T05:32:43.840Z,54
2023-03-03T05:33:51.084Z,58
2023-03-03T05:34:58.089Z,54
2023-03-03T05:36:07.552Z,55
2023-03-03T05:37:14.517Z,56
2023-03-03T05:38:21.702Z,51
2023-03-03T05:39:31.392Z,58
2023-03-03T05:40:38.561Z,55
2023-03-03T05:41:45.708Z,58
2023-03-03T05:42:52.847Z,53
2023-03-03T05:44:02.579Z,55
2023-03-03T05:45:10.239Z,55
2023-03-03T05:46:19.954Z,60
2023-03-03T05:47:27.656Z,57
2023-03-03T05:48:34.664Z,60
2023-03-03T05:49:42.775Z,59
2023-03-03T05:50:50.603Z,56
2023-03-03T05:52:00.723Z,58
2023-03-03T05:53:07.799Z,61
2023-03-03T05:54:14.917Z,57
2023-03-03T05:55:25.018Z,57
2023-03-03T05:56:33.985Z,59
2023-03-03T05:57:40.966Z,57
2023-03-03T05:58:48.664Z,57
2023-03-03T05:59:55.710Z,54
2023-03-03T06:01:02.671Z,53
2023-03-03T06:02:09.811Z,52
2023-03-03T06:03:16.644Z,51
2023-03-03T06:04:23.552Z,51
2023-03-03T06:05:31.328Z,51
2023-03-03T06:06:38.496Z,53
2023-03-03T06:07:45.461Z,53
2023-03-03T06:08:52.436Z,50
2023-03-03T06:10:01.640Z,50
2023-03-03T06:11:09.127Z,50
2023-03-03T06:12:16.126Z,50
2023-03-03T06:13:23.132Z,54
2023-03-03T06:14:30.100Z,55
2023-03-03T06:15:37.165Z,50
2023-03-03T06:16:44.328Z,51
2023-03-03T06:17:51.197Z,52
2023-03-03T06:18:59.780Z,54
2023-03-03T06:20:06.720Z,51
2023-03-03T06:21:17.054Z,49
2023-03-03T06:22:23.988Z,48
2023-03-03T06:23:30.928Z,48
2023-03-03T06:24:39.757Z,50
2023-03-03T06:25:46.801Z,48
2023-03-03T06:26:56.917Z,48
2023-03-03T06:28:06.814Z,48
2023-03-03T06:29:15.583Z,49
2023-03-03T06:30:20.725Z,50
2023-03-03T06:31:30.564Z,50
2023-03-03T06:32:37.565Z,49
2023-03-03T06:33:45.607Z,47
2023-03-03T06:34:52.587Z,52
2023-03-03T06:35:59.599Z,49
2023-03-03T06:37:07.296Z,50
2023-03-03T06:38:14.805Z,49
2023-03-03T06:39:25.030Z,54
2023-03-03T06:40:32.015Z,50
2023-03-03T06:41:39.045Z,50
2023-03-03T06:42:46.092Z,50
2023-03-03T06:43:53.214Z,51
2023-03-03T06:45:00.315Z,46
2023-03-03T06:46:07.528Z,47
2023-03-03T06:47:14.445Z,49
2023-03-03T06:48:21.389Z,46
2023-03-03T06:49:28.462Z,49
2023-03-03T06:50:35.695Z,48
2023-03-03T06:51:42.697Z,49
2023-03-03T06:52:49.637Z,49
2023-03-03T06:54:00.788Z,48
2023-03-03T06:55:16.165Z,50
2023-03-03T06:56:26.584Z,50
2023-03-03T06:57:33.613Z,47
2023-03-03T06:58:46.013Z,51
2023-03-03T06:59:53.072Z,53
2023-03-03T07:01:05.079Z,53
2023-03-03T07:02:12.153Z,52
2023-03-03T07:03:19.310Z,54
2023-03-03T07:04:26.789Z,55
2023-03-03T07:05:33.884Z,52
2023-03-03T07:06:40.999Z,55
2023-03-03T07:07:47.971Z,53
2023-03-03T07:08:54.985Z,48
2023-03-03T07:10:04.134Z,47
2023-03-03T07:11:17.130Z,49
2023-03-03T07:12:27.290Z,45
2023-03-03T07:13:38.104Z,45
2023-03-03T07:14:45.131Z,47
2023-03-03T07:15:52.188Z,48
2023-03-03T07:16:59.177Z,45
2023-03-03T07:18:09.417Z,44
2023-03-03T07:19:25.536Z,47
2023-03-03T07:20:40.664Z,45
2023-03-03T07:21:49.626Z,45
2023-03-03T07:22:56.550Z,44
2023-03-03T07:24:04.010Z,45
2023-03-03T07:25:21.466Z,44
2023-03-03T07:26:34.394Z,45
2023-03-03T07:27:41.413Z,43
2023-03-03T07:28:49.250Z,44
2023-03-03T07:30:02.088Z,40
2023-03-03T07:31:16.941Z,42
2023-03-03T07:32:32.055Z,44
2023-03-03T07:33:41.114Z,44
2023-03-03T07:34:48.197Z,43
2023-03-03T07:35:55.222Z,45
2023-03-03T07:37:02.260Z,43
2023-03-03T07:38:19.302Z,44
2023-03-03T07:39:26.313Z,44
2023-03-03T07:40:40.747Z,44
2023-03-03T07:41:53.234Z,45
2023-03-03T07:43:05.262Z,43
2023-03-03T07:44:22.400Z,44
2023-03-03T07:45:29.347Z,44
2023-03-03T07:46:37.325Z,45
2023-03-03T07:47:47.156Z,45
2023-03-03T07:48:54.128Z,42
2023-03-03T07:50:01.136Z,43
2023-03-03T07:51:18.327Z,40
2023-03-03T07:52:33.300Z,43
2023-03-03T07:53:43.439Z,44
2023-03-03T07:54:50.500Z,45
2023-03-03T07:55:58.478Z,45
2023-03-03T07:57:05.552Z,44
2023-03-03T07:58:15.325Z,45
2023-03-03T07:59:22.397Z,44
2023-03-03T08:00:29.696Z,46
2023-03-03T08:01:42.406Z,48
2023-03-03T08:02:49.856Z,45
2023-03-03T08:04:03.179Z,47
2023-03-03T08:05:18.294Z,49
2023-03-03T08:06:36.111Z,52
2023-03-03T08:07:43.416Z,52
2023-03-03T08:08:50.750Z,48
2023-03-03T08:09:59.176Z,49
2023-03-03T08:11:06.464Z,49
2023-03-03T08:12:16.924Z,49
2023-03-03T08:13:29.026Z,46
2023-03-03T08:14:36.116Z,46
2023-03-03T08:15:44.566Z,45
2023-03-03T08:17:02.714Z,47
2023-03-03T08:18:14.841Z,46
2023-03-03T08:19:27.686Z,76
2023-03-03T08:20:35.004Z,64
2023-03-03T08:21:45.005Z,82
2023-03-03T08:22:53.227Z,94
2023-03-03T08:24:00.220Z,80
2023-03-03T08:25:09.737Z,166
2023-03-03T08:26:16.803Z,161
2023-03-03T08:27:23.785Z,173
2023-03-03T08:28:30.970Z,152
2023-03-03T08:29:39.870Z,117
2023-03-03T08:30:46.881Z,137
2023-03-03T08:31:53.948Z,161
2023-03-03T08:33:01.130Z,84
2023-03-03T08:34:08.139Z,79
2023-03-03T08:35:15.228Z,205
2023-03-03T08:36:22.276Z,148
2023-03-03T08:37:29.470Z,133
2023-03-03T08:38:36.397Z,54
2023-03-03T08:39:43.384Z,134
2023-03-03T08:40:50.404Z,164
2023-03-03T08:42:01.880Z,71
2023-03-03T08:43:08.986Z,51
2023-03-03T08:44:16.115Z,45
2023-03-03T08:45:23.066Z,38
2023-03-03T08:46:32.787Z,36
2023-03-03T08:47:39.847Z,37
2023-03-03T08:48:46.836Z,42
2023-03-03T08:49:58.093Z,37
2023-03-03T08:51:06.790Z,36
2023-03-03T08:52:13.816Z,36
2023-03-03T08:53:20.906Z,36
2023-03-03T08:54:27.959Z,39
2023-03-03T08:55:35.832Z,37
2023-03-03T08:56:43.697Z,40
2023-03-03T08:57:50.667Z,39
2023-03-03T08:59:03.955Z,36
2023-03-03T09:00:04.827Z,37
2023-03-03T09:01:12.337Z,43
2023-03-03T09:02:22.839Z,48
2023-03-03T09:03:30.488Z,45
2023-03-03T09:04:40.892Z,38
2023-03-03T09:05:47.831Z,35
2023-03-03T09:06:54.667Z,37
2023-03-03T09:08:05.236Z,36
2023-03-03T09:09:12.127Z,36
2023-03-03T09:10:19.119Z,39
2023-03-03T09:11:26.971Z,40
2023-03-03T09:12:33.873Z,36
2023-03-03T09:13:48.671Z,37
2023-03-03T09:14:55.519Z,37
2023-03-03T09:16:11.093Z,45
2023-03-03T09:17:18.078Z,32
2023-03-03T09:18:28.028Z,34
2023-03-03T09:19:37.189Z,35
2023-03-03T09:20:41.955Z,32
2023-03-03T09:21:49.804Z,35
2023-03-03T09:23:03.664Z,55
2023-03-03T09:24:21.487Z,55
2023-03-03T09:25:31.389Z,41
2023-03-03T09:26:38.565Z,54
2023-03-03T09:27:48.588Z,48
2023-03-03T09:28:57.725Z,35
2023-03-03T09:30:14.902Z,31
2023-03-03T09:31:29.944Z,31
2023-03-03T09:32:41.884Z,33
2023-03-03T09:33:48.729Z,34
2023-03-03T09:34:56.230Z,32
2023-03-03T09:36:03.516Z,32
2023-03-03T09:37:15.636Z,33
2023-03-03T09:38:27.952Z,34
2023-03-03T09:39:35.972Z,39
2023-03-03T09:40:42.997Z,40
2023-03-03T09:41:57.938Z,37
2023-03-03T09:43:08.548Z,33
2023-03-03T09:44:23.524Z,33
2023-03-03T09:45:35.687Z,41
2023-03-03T09:46:42.700Z,40
2023-03-03T09:48:02.654Z,38
2023-03-03T09:49:14.635Z,38
2023-03-03T09:50:30.288Z,38
2023-03-03T09:51:45.483Z,36
2023-03-03T09:52:52.418Z,41
2023-03-03T09:54:09.398Z,38
2023-03-03T09:55:19.757Z,33
2023-03-03T09:56:37.620Z,33
2023-03-03T09:58:04.667Z,31
2023-03-03T09:59:04.778Z,35
2023-03-03T10:00:20.045Z,34
2023-03-03T10:01:34.770Z,32
2023-03-03T10:02:51.814Z,31
2023-03-03T10:03:56.572Z,35
2023-03-03T10:05:16.484Z,32
2023-03-03T10:06:28.545Z,30
2023-03-03T10:07:42.231Z,32
2023-03-03T10:08:54.749Z,31
2023-03-03T10:10:04.405Z,30
2023-03-03T10:11:19.214Z,29
2023-03-03T10:12:31.232Z,30
2023-03-03T10:13:44.095Z,30
2023-03-03T10:15:01.220Z,30
2023-03-03T10:16:16.265Z,29
2023-03-03T10:17:36.852Z,31
2023-03-03T10:18:51.392Z,30
2023-03-03T10:20:03.342Z,31
2023-03-03T10:21:14.900Z,29
2023-03-03T10:22:29.366Z,33
2023-03-03T10:23:46.553Z,43
2023-03-03T10:24:57.670Z,66
2023-03-03T10:26:09.872Z,58
2023-03-03T10:27:21.120Z,45
2023-03-03T10:28:38.055Z,64
2023-03-03T10:29:55.075Z,79
2023-03-03T10:31:11.710Z,36
2023-03-03T10:32:14.628Z,47
2023-03-03T10:33:31.101Z,51
2023-03-03T10:34:45.695Z,50
2023-03-03T10:36:07.245Z,51
2023-03-03T10:37:14.907Z,61
2023-03-03T10:38:34.554Z,37
2023-03-03T10:39:43.690Z,32
2023-03-03T10:40:58.777Z,32
2023-03-03T10:42:08.592Z,33
2023-03-03T10:43:30.898Z,35
2023-03-03T10:44:33.462Z,34
2023-03-03T10:45:50.465Z,41
2023-03-03T10:47:05.296Z,36
2023-03-03T10:48:17.418Z,32
2023-03-03T10:49:29.316Z,36
2023-03-03T10:50:46.635Z,36
2023-03-03T10:51:53.534Z,35
2023-03-03T10:53:05.563Z,33
2023-03-03T10:54:20.040Z,35
2023-03-03T10:55:29.611Z,34
2023-03-03T10:56:52.004Z,32
2023-03-03T10:57:56.374Z,38
2023-03-03T10:59:08.472Z,38
2023-03-03T11:00:25.622Z,34
2023-03-03T11:01:39.486Z,35
2023-03-03T11:02:54.551Z,38
2023-03-03T11:04:09.420Z,43
2023-03-03T11:05:26.680Z,50
2023-03-03T11:06:37.859Z,46
2023-03-03T11:07:49.843Z,41
2023-03-03T11:09:04.694Z,38
2023-03-03T11:10:17.747Z,39
2023-03-03T11:11:37.013Z,41
2023-03-03T11:12:46.773Z,47
2023-03-03T11:14:05.008Z,45
2023-03-03T11:15:12.136Z,45
2023-03-03T11:16:25.651Z,53
2023-03-03T11:17:42.576Z,42
2023-03-03T11:19:01.562Z,39
2023-03-03T11:20:10.698Z,37
2023-03-03T11:21:23.017Z,40
2023-03-03T11:22:35.392Z,38
2023-03-03T11:23:45.568Z,38
2023-03-03T11:25:05.084Z,38
2023-03-03T11:26:20.067Z,40
2023-03-03T11:27:32.282Z,38
2023-03-03T11:28:44.261Z,39
2023-03-03T11:29:59.105Z,36
2023-03-03T11:31:07.416Z,36
2023-03-03T11:32:19.456Z,34
2023-03-03T11:33:35.450Z,34
2023-03-03T11:34:51.173Z,31
2023-03-03T11:36:00.307Z,32
2023-03-03T11:37:14.957Z,33
2023-03-03T11:38:27.274Z,31
2023-03-03T11:39:43.072Z,32
2023-03-03T11:40:50.210Z,29
2023-03-03T11:41:57.083Z,30
2023-03-03T11:43:23.306Z,30
2023-03-03T11:44:27.208Z,29
2023-03-03T11:45:39.450Z,29
2023-03-03T11:46:51.330Z,28
2023-03-03T11:47:58.306Z,28
2023-03-03T11:49:16.360Z,29
2023-03-03T11:50:28.384Z,29
2023-03-03T11:51:46.416Z,30
2023-03-03T11:52:56.117Z,29
2023-03-03T11:54:09.091Z,27
2023-03-03T11:55:19.026Z,27
2023-03-03T11:56:31.385Z,29
2023-03-03T11:57:39.345Z,31
2023-03-03T11:58:55.960Z,29
2023-03-03T12:00:05.685Z,25
2023-03-03T12:01:22.751Z,26
2023-03-03T12:02:38.410Z,29
2023-03-03T12:03:51.280Z,26
2023-03-03T12:05:06.129Z,27
2023-03-03T12:06:18.101Z,26
2023-03-03T12:07:32.971Z,26
2023-03-03T12:08:44.968Z,28
2023-03-03T12:10:04.700Z,29
2023-03-03T12:11:21.747Z,33
2023-03-03T12:12:29.495Z,31
2023-03-03T12:13:36.568Z,30
2023-03-03T12:14:50.073Z,38
2023-03-03T12:15:57.091Z,28
2023-03-03T12:17:07.254Z,30
2023-03-03T12:18:20.030Z,31
2023-03-03T12:19:41.021Z,26
2023-03-03T12:20:58.089Z,27
2023-03-03T12:22:15.301Z,28
2023-03-03T12:23:28.064Z,29
2023-03-03T12:24:43.678Z,24
2023-03-03T12:25:55.653Z,27
2023-03-03T12:27:05.598Z,26
2023-03-03T12:28:17.604Z,28
2023-03-03T12:29:28.512Z,35
2023-03-03T12:30:38.265Z,33
2023-03-03T12:31:48.317Z,33
2023-03-03T12:32:57.990Z,30
2023-03-03T12:34:13.599Z,30
2023-03-03T12:35:23.945Z,27
2023-03-03T12:36:35.926Z,27
2023-03-03T12:37:49.108Z,46
2023-03-03T12:39:01.076Z,55
2023-03-03T12:40:13.166Z,55
2023-03-03T12:41:20.013Z,42
2023-03-03T12:42:37.704Z,77
2023-03-03T12:43:52.497Z,53
2023-03-03T12:45:03.175Z,86
2023-03-03T12:46:14.827Z,77
2023-03-03T12:47:30.492Z,56
2023-03-03T12:48:45.317Z,69
2023-03-03T12:50:06.350Z,58
2023-03-03T12:51:06.491Z,91
2023-03-03T12:52:21.092Z,68
2023-03-03T12:53:33.082Z,67
2023-03-03T12:54:49.957Z,64
2023-03-03T12:56:06.909Z,35
2023-03-03T12:57:14.482Z,34
2023-03-03T12:58:29.980Z,30
2023-03-03T12:59:41.484Z,30
2023-03-03T13:00:58.538Z,28
2023-03-03T13:02:10.426Z,29
2023-03-03T13:03:22.322Z,36
2023-03-03T13:04:36.645Z,33
2023-03-03T13:05:48.721Z,34
2023-03-03T13:07:06.734Z,44
2023-03-03T13:08:16.971Z,43
2023-03-03T13:09:33.712Z,35
2023-03-03T13:10:49.621Z,26
2023-03-03T13:12:04.246Z,26
2023-03-03T13:13:19.100Z,25
2023-03-03T13:14:31.666Z,27
2023-03-03T13:15:55.091Z,32
2023-03-03T13:16:56.751Z,35
2023-03-03T13:18:09.619Z,36
2023-03-03T13:19:24.514Z,37
2023-03-03T13:20:40.544Z,37
2023-03-03T13:21:50.295Z,31
2023-03-03T13:23:02.230Z,32
2023-03-03T13:24:17.719Z,30
2023-03-03T13:25:27.192Z,30
2023-03-03T13:26:44.175Z,28
2023-03-03T13:27:51.779Z,26
2023-03-03T13:28:58.787Z,25
2023-03-03T13:30:16.028Z,26
2023-03-03T13:31:26.520Z,26
2023-03-03T13:32:37.023Z,27
2023-03-03T13:33:47.656Z,25
2023-03-03T13:34:57.897Z,28
2023-03-03T13:36:04.821Z,28
2023-03-03T13:37:14.409Z,27
2023-03-03T13:38:23.688Z,28
2023-03-03T13:39:34.123Z,26
2023-03-03T13:40:45.852Z,27
2023-03-03T13:41:57.640Z,28
2023-03-03T13:43:06.607Z,31
2023-03-03T13:44:18.367Z,33
2023-03-03T13:45:35.052Z,32
2023-03-03T13:46:54.389Z,35
2023-03-03T13:48:11.605Z,33
2023-03-03T13:49:31.643Z,30
2023-03-03T13:50:43.917Z,41
2023-03-03T13:51:59.484Z,41
2023-03-03T13:53:10.434Z,40
2023-03-03T13:54:28.772Z,71
2023-03-03T13:55:45.802Z,80
2023-03-03T13:56:58.898Z,55
2023-03-03T13:58:16.068Z,49
2023-03-03T13:59:30.537Z,40
2023-03-03T14:00:42.527Z,38
2023-03-03T14:01:57.515Z,32
2023-03-03T14:03:05.313Z,27
2023-03-03T14:04:24.331Z,25
2023-03-03T14:05:39.675Z,26
2023-03-03T14:06:54.413Z,28
2023-03-03T14:08:07.126Z,27
2023-03-03T14:09:26.884Z,26
2023-03-03T14:10:38.834Z,25
2023-03-03T14:11:51.026Z,25
2023-03-03T14:13:02.994Z,26
2023-03-03T14:14:15.410Z,25
2023-03-03T14:15:32.471Z,24
2023-03-03T14:16:52.494Z,21
2023-03-03T14:18:05.703Z,21
2023-03-03T14:19:23.054Z,21
2023-03-03T14:20:35.156Z,23
2023-03-03T14:21:45.611Z,26
2023-03-03T14:22:55.433Z,28
2023-03-03T14:24:07.101Z,30
2023-03-03T14:25:22.200Z,24
2023-03-03T14:26:31.988Z,25
2023-03-03T14:27:49.083Z,23
2023-03-03T14:29:06.553Z,27
2023-03-03T14:30:16.990Z,24
2023-03-03T14:31:34.731Z,28
2023-03-03T14:32:45.575Z,26
2023-03-03T14:33:49.087Z,29
2023-03-03T14:35:01.166Z,36
2023-03-03T14:36:08.011Z,23
2023-03-03T14:37:15.559Z,22
2023-03-03T14:38:30.197Z,28
2023-03-03T14:39:40.145Z,25
2023-03-03T14:40:49.819Z,22
2023-03-03T14:41:56.741Z,22
2023-03-03T14:43:08.746Z,23
2023-03-03T14:44:25.890Z,23
2023-03-03T14:45:33.673Z,22
2023-03-03T14:46:40.529Z,23
2023-03-03T14:47:47.950Z,25
2023-03-03T14:48:55.681Z,25
2023-03-03T14:50:02.898Z,27
2023-03-03T14:51:10.132Z,26
2023-03-03T14:52:27.366Z,42
2023-03-03T14:53:35.412Z,77
2023-03-03T14:54:43.515Z,80
2023-03-03T14:55:53.549Z,103
2023-03-03T14:57:01.937Z,111
2023-03-03T14:58:14.540Z,144
2023-03-03T14:59:29.370Z,85
2023-03-03T15:00:36.790Z,79
2023-03-03T15:01:43.652Z,68
2023-03-03T15:02:51.398Z,99
2023-03-03T15:04:06.421Z,83
2023-03-03T15:05:21.512Z,150
2023-03-03T15:06:28.864Z,76
2023-03-03T15:07:43.681Z,56
2023-03-03T15:08:50.531Z,96
2023-03-03T15:10:02.537Z,70
2023-03-03T15:11:09.447Z,40
2023-03-03T15:12:21.397Z,56
2023-03-03T15:13:28.976Z,57
2023-03-03T15:14:36.240Z,44
2023-03-03T15:15:43.241Z,44
2023-03-03T15:16:55.212Z,79
2023-03-03T15:18:05.630Z,53
2023-03-03T15:19:12.510Z,60
2023-03-03T15:20:25.308Z,37
2023-03-03T15:21:38.644Z,30
2023-03-03T15:22:48.880Z,28
2023-03-03T15:24:04.394Z,25
2023-03-03T15:25:20.775Z,27
2023-03-03T15:26:35.052Z,24
2023-03-03T15:27:44.940Z,19
2023-03-03T15:28:51.833Z,21
2023-03-03T15:29:59.616Z,22
2023-03-03T15:31:16.753Z,24
2023-03-03T15:32:31.701Z,21
2023-03-03T15:33:44.535Z,23
2023-03-03T15:35:04.412Z,24
2023-03-03T15:36:18.994Z,22
2023-03-03T15:37:37.839Z,23
2023-03-03T15:38:49.068Z,24
2023-03-03T15:39:58.883Z,22
2023-03-03T15:41:15.994Z,19
2023-03-03T15:42:29.306Z,20
2023-03-03T15:43:45.286Z,19
2023-03-03T15:44:52.075Z,20
2023-03-03T15:46:04.029Z,20
2023-03-03T15:47:22.482Z,21
2023-03-03T15:48:36.913Z,23
2023-03-03T15:49:48.822Z,20
2023-03-03T15:51:00.965Z,23
2023-03-03T15:52:13.093Z,21
2023-03-03T15:53:26.369Z,21
2023-03-03T15:54:43.492Z,22
2023-03-03T15:55:56.837Z,22
2023-03-03T15:57:13.869Z,20
2023-03-03T15:58:20.954Z,21
2023-03-03T15:59:30.082Z,23
2023-03-03T16:00:47.109Z,23
2023-03-03T16:02:04.173Z,28
2023-03-03T16:03:18.755Z,27
2023-03-03T16:04:36.524Z,26
2023-03-03T16:05:43.403Z,22
2023-03-03T16:06:55.511Z,23
2023-03-03T16:08:04.895Z,23
2023-03-03T16:09:21.933Z,22
2023-03-03T16:10:39.092Z,21
2023-03-03T16:11:56.117Z,21
2023-03-03T16:13:06.499Z,23
2023-03-03T16:14:19.029Z,23
2023-03-03T16:15:36.240Z,23
2023-03-03T16:16:45.815Z,23
2023-03-03T16:18:00.869Z,24
2023-03-03T16:19:15.600Z,25
2023-03-03T16:20:29.554Z,26
2023-03-03T16:21:36.489Z,25
2023-03-03T16:22:48.423Z,25
2023-03-03T16:24:01.253Z,26
2023-03-03T16:25:13.835Z,27
2023-03-03T16:26:31.044Z,37
2023-03-03T16:27:43.829Z,33
2023-03-03T16:28:55.773Z,31
2023-03-03T16:30:12.843Z,27
2023-03-03T16:31:23.053Z,55
2023-03-03T16:32:32.626Z,97
2023-03-03T16:33:40.411Z,39
2023-03-03T16:34:47.363Z,27
2023-03-03T16:35:59.412Z,25
2023-03-03T16:37:09.121Z,26
2023-03-03T16:38:21.140Z,41
2023-03-03T16:39:35.132Z,46
2023-03-03T16:40:47.049Z,48